La Tontouta, New Caledonia

6:49 PM NCT on October 31, 2014 (GMT +1100)
La Tontouta | Change Station
CLOSE
Current Station
Airport
Location: La Tontouta,
Elevation: 52 ft
Nearby Weather Stations

Elev 52 ft 22.02 °S, 166.22 °E | Updated 19 minutes ago

Partly Cloudy
Partly Cloudy
75 °F
Feels Like 75 °F
N
5
Wind Variable Wind from SE

Today
High -- | Low -- °F
--% Chance of Precip.
Yesterday
High -- | Low -- °F
Precip. -- in
5:11 AM 6:05 PM
First Quarter, 52% visible
Pressure 29.98 in
Visibility 6.2 miles
Clouds Few 5400 ft
Dew Point 66 °F
Humidity 73%
Rainfall 0.00 in
Snow Depth Not available.
UV 0 out of 12
Pollen Not available.
Air Quality Not available.
Flu Activity Not available.
METAR NWWW 310730Z AUTO 14004KT 9999 FEW054 24/19 Q1015

More Conditions Fewer Conditions

Pressure 29.98 in
Visibility 6.2 miles
Clouds Few 5400 ft
Dew Point 66 °F
Humidity 73%
Rainfall 0.00 in
Snow Depth Not available.
UV 0 out of 12
Pollen Not available.
Air Quality Not available.
Flu Activity Not available.
METAR NWWW 310730Z AUTO 14004KT 9999 FEW054 24/19 Q1015

More Conditions Fewer Conditions

10-Day Weather Forecast

Almanac

Astronomy

Oct. 31, 2014 Rise Set
Actual Time
Civil Twilight
Nautical Twilight
Astronomical Twilight
Moon
Length of Visible Light
Length of Day
Tomorrow will be .
, % of the Moon is Illuminated

Today's Extremes

Country Highs Country Lows

Community

WunderPhotos

Upload Photos

1,766,573 photos uploaded!

WunderBlogs® & News

Nearby

Air Quality

  Air Quality AQ Index Pollutant
Not available.

Snow Depth

Station Depth Elevation

Earthquake Activity

City Distance Mag. Time & Date
Minimum magnitude displayed is 2.5.

Coastal Water Temperatures

Place Temperature

Nearby Weather Stations